createdAt,value
2017-09-21T00:00:46.467Z,87.30
2017-09-21T00:03:17.420Z,87.40
2017-09-21T00:05:48.279Z,87.40
2017-09-21T00:08:20.196Z,87.50
2017-09-21T00:10:51.484Z,87.40
2017-09-21T00:13:22.814Z,87.50
2017-09-21T00:15:53.465Z,87.60
2017-09-21T00:18:24.329Z,87.60
2017-09-21T00:20:55.311Z,87.70
2017-09-21T00:23:26.628Z,87.70
2017-09-21T00:25:57.233Z,87.70
2017-09-21T00:28:27.835Z,87.50
2017-09-21T00:30:59.444Z,87.70
2017-09-21T00:33:29.928Z,87.60
2017-09-21T00:36:01.526Z,87.80
2017-09-21T00:38:31.806Z,87.80
2017-09-21T00:41:03.233Z,88.00
2017-09-21T00:43:34.730Z,88.00
2017-09-21T00:46:05.840Z,87.90
2017-09-21T00:48:37.620Z,88.20
2017-09-21T00:51:10.448Z,88.20
2017-09-21T00:53:41.182Z,88.20
2017-09-21T00:56:12.910Z,88.20
2017-09-21T00:58:44.418Z,88.30
2017-09-21T01:01:15.018Z,88.30
2017-09-21T01:03:45.761Z,88.50
2017-09-21T01:06:16.905Z,88.50
2017-09-21T01:08:48.628Z,88.40
2017-09-21T01:11:20.116Z,88.40
2017-09-21T01:13:51.556Z,88.70
2017-09-21T01:16:22.101Z,88.70
2017-09-21T01:18:52.832Z,88.80
2017-09-21T01:21:24.512Z,88.70
2017-09-21T01:23:55.970Z,88.70
2017-09-21T01:26:27.005Z,88.70
2017-09-21T01:28:58.607Z,88.80
2017-09-21T01:31:30.183Z,88.80
2017-09-21T01:34:01.665Z,89.00
2017-09-21T01:36:33.433Z,89.20
2017-09-21T01:39:04.842Z,89.30
2017-09-21T01:41:35.346Z,89.20
2017-09-21T01:44:06.286Z,89.30
2017-09-21T01:46:37.300Z,89.30
2017-09-21T01:49:08.009Z,89.40
2017-09-21T01:51:40.130Z,89.30
2017-09-21T01:54:11.071Z,89.30
2017-09-21T01:56:41.541Z,89.30
2017-09-21T01:59:12.612Z,89.60
2017-09-21T02:01:44.110Z,89.50
2017-09-21T02:04:16.306Z,89.70
2017-09-21T02:06:47.612Z,89.50
2017-09-21T02:09:18.170Z,89.50
2017-09-21T02:11:49.664Z,89.40
2017-09-21T02:14:20.221Z,89.40
2017-09-21T02:16:51.240Z,89.40
2017-09-21T02:19:22.422Z,89.40
2017-09-21T02:21:54.005Z,89.70
2017-09-21T02:24:24.975Z,89.70
2017-09-21T02:26:55.726Z,90.00
2017-09-21T02:29:27.699Z,89.90
2017-09-21T02:31:58.525Z,89.90
2017-09-21T02:34:29.945Z,89.70
2017-09-21T02:37:00.916Z,90.00
2017-09-21T02:39:31.967Z,90.30
2017-09-21T02:42:02.959Z,90.40
2017-09-21T02:44:34.201Z,90.50
2017-09-21T02:47:05.528Z,90.60
2017-09-21T02:49:37.069Z,90.50
2017-09-21T02:52:09.001Z,90.40
2017-09-21T02:54:40.186Z,90.40
2017-09-21T02:57:11.267Z,90.50
2017-09-21T02:59:42.365Z,90.60
2017-09-21T03:02:13.356Z,90.50
2017-09-21T03:04:44.291Z,90.60
2017-09-21T03:07:15.413Z,90.50
2017-09-21T03:09:46.805Z,91.20
2017-09-21T03:12:17.810Z,91.40
2017-09-21T03:14:49.402Z,91.40
2017-09-21T03:17:20.330Z,91.60
2017-09-21T03:19:51.631Z,91.70
2017-09-21T03:22:23.997Z,91.80
2017-09-21T03:24:55.229Z,91.80
2017-09-21T03:27:25.945Z,92.10
2017-09-21T03:29:57.775Z,91.70
2017-09-21T03:32:28.651Z,91.70
2017-09-21T03:35:00.484Z,91.90
2017-09-21T03:37:31.798Z,91.80
2017-09-21T03:40:02.640Z,91.80
2017-09-21T03:42:33.967Z,91.90
2017-09-21T03:45:04.767Z,91.80
2017-09-21T03:47:36.606Z,91.80
2017-09-21T03:50:07.253Z,91.80
2017-09-21T03:52:38.927Z,91.80
2017-09-21T03:55:10.087Z,91.80
2017-09-21T03:57:41.207Z,91.80
2017-09-21T04:00:13.405Z,91.90
2017-09-21T04:02:44.236Z,91.90
2017-09-21T04:05:15.129Z,91.80
2017-09-21T04:07:46.356Z,92.10
2017-09-21T04:10:18.314Z,91.90
2017-09-21T04:12:49.458Z,91.90
2017-09-21T04:15:20.593Z,91.90
2017-09-21T04:17:51.452Z,92.00
2017-09-21T04:20:22.340Z,92.10
2017-09-21T04:22:53.598Z,92.00
2017-09-21T04:25:25.151Z,92.00
2017-09-21T04:27:56.023Z,92.10
2017-09-21T04:30:27.461Z,92.10
2017-09-21T04:32:58.805Z,92.10
2017-09-21T04:35:29.990Z,92.10
2017-09-21T04:38:01.866Z,92.10
2017-09-21T04:40:32.943Z,92.10
2017-09-21T04:43:04.233Z,92.10
2017-09-21T04:45:36.354Z,92.20
2017-09-21T04:48:07.148Z,91.90
2017-09-21T04:50:38.422Z,91.90
2017-09-21T04:53:09.844Z,91.90
2017-09-21T04:55:40.915Z,91.90
2017-09-21T04:58:11.927Z,92.00
2017-09-21T05:00:43.444Z,92.10
2017-09-21T05:03:14.604Z,92.10
2017-09-21T05:05:45.627Z,92.30
2017-09-21T05:08:17.741Z,92.30
2017-09-21T05:10:49.404Z,92.30
2017-09-21T05:13:20.929Z,92.40
2017-09-21T05:15:52.315Z,92.50
2017-09-21T05:18:23.605Z,92.50
2017-09-21T05:20:54.525Z,92.50
2017-09-21T05:23:25.665Z,92.50
2017-09-21T05:28:43.277Z,92.50
2017-09-21T05:31:15.111Z,92.50
2017-09-21T05:33:46.364Z,92.40
2017-09-21T05:38:50.804Z,92.40
2017-09-21T05:41:21.653Z,92.40
2017-09-21T05:43:53.585Z,92.40
2017-09-21T05:46:24.861Z,92.40
2017-09-21T05:48:56.643Z,92.40
2017-09-21T05:51:27.766Z,92.30
2017-09-21T05:53:58.402Z,92.30
2017-09-21T05:56:29.891Z,92.20
2017-09-21T05:59:01.359Z,92.20
2017-09-21T06:01:32.762Z,92.30
2017-09-21T06:04:03.961Z,92.30
2017-09-21T06:06:36.055Z,92.20
2017-09-21T06:09:07.142Z,92.20
2017-09-21T06:11:39.021Z,92.10
2017-09-21T06:14:11.198Z,92.00
2017-09-21T06:16:42.398Z,92.00
2017-09-21T06:19:14.029Z,91.80
2017-09-21T06:21:45.129Z,91.80
2017-09-21T06:24:17.239Z,91.50
2017-09-21T06:26:49.178Z,91.50
2017-09-21T06:29:20.897Z,91.30
2017-09-21T06:31:52.435Z,91.30
2017-09-21T06:34:23.511Z,91.00
2017-09-21T06:36:55.474Z,89.70
2017-09-21T06:39:27.064Z,87.80
2017-09-21T06:41:58.269Z,86.30
2017-09-21T06:44:30.916Z,82.90
2017-09-21T06:47:02.087Z,82.90
2017-09-21T06:49:33.283Z,81.40
2017-09-21T06:52:04.806Z,80.50
2017-09-21T06:54:36.311Z,80.40
2017-09-21T06:57:08.541Z,79.50
2017-09-21T06:59:40.818Z,76.80
2017-09-21T07:02:12.052Z,76.70
2017-09-21T07:04:43.952Z,74.60
2017-09-21T07:07:15.268Z,74.60
2017-09-21T07:09:46.859Z,73.10
2017-09-21T07:12:17.681Z,73.00
2017-09-21T07:14:49.843Z,70.90
2017-09-21T07:17:21.337Z,70.40
2017-09-21T07:19:52.436Z,71.30
2017-09-21T07:22:23.834Z,70.60
2017-09-21T07:24:55.333Z,68.60
2017-09-21T07:27:27.247Z,69.40
2017-09-21T07:29:58.633Z,67.80
2017-09-21T07:32:30.044Z,67.70
2017-09-21T07:35:01.843Z,65.20
2017-09-21T07:37:32.982Z,63.00
2017-09-21T07:40:04.545Z,59.50
2017-09-21T07:42:36.572Z,63.70
2017-09-21T07:45:07.914Z,67.20
2017-09-21T07:47:39.490Z,67.20
2017-09-21T07:50:10.700Z,67.60
2017-09-21T07:52:43.066Z,66.50
2017-09-21T07:55:15.395Z,64.50
2017-09-21T07:57:47.042Z,64.50
2017-09-21T08:00:18.375Z,61.00
2017-09-21T08:02:49.456Z,60.30
2017-09-21T08:05:21.467Z,60.80
2017-09-21T08:07:54.224Z,65.20
2017-09-21T08:10:25.355Z,65.00
2017-09-21T08:12:57.038Z,61.50
2017-09-21T08:15:28.394Z,64.30
2017-09-21T08:17:59.138Z,69.00
2017-09-21T08:20:30.683Z,68.70
2017-09-21T08:23:02.158Z,65.30
2017-09-21T08:25:33.971Z,63.50
2017-09-21T08:28:06.317Z,65.70
2017-09-21T08:30:37.545Z,65.60
2017-09-21T08:33:09.758Z,62.60
2017-09-21T08:35:41.180Z,60.30
2017-09-21T08:38:13.269Z,57.50
2017-09-21T08:40:45.307Z,57.50
2017-09-21T08:43:16.397Z,57.40
2017-09-21T08:45:47.911Z,59.00
2017-09-21T08:48:19.314Z,56.90
2017-09-21T08:50:50.637Z,56.90
2017-09-21T08:53:21.366Z,56.90
2017-09-21T08:55:53.354Z,56.40
2017-09-21T08:58:25.552Z,53.80
2017-09-21T09:00:57.014Z,53.80
2017-09-21T09:03:29.112Z,58.10
2017-09-21T09:06:01.175Z,58.00
2017-09-21T09:08:33.965Z,57.90
2017-09-21T09:11:06.137Z,53.70
2017-09-21T09:13:37.613Z,53.50
2017-09-21T09:16:09.197Z,52.10
2017-09-21T09:18:40.113Z,52.80
2017-09-21T09:21:10.998Z,50.90
2017-09-21T09:23:42.689Z,50.00
2017-09-21T09:26:14.222Z,50.00
2017-09-21T09:28:46.503Z,55.60
2017-09-21T09:31:17.795Z,55.50
2017-09-21T09:33:49.081Z,57.50
2017-09-21T09:36:20.681Z,54.10
2017-09-21T09:38:51.947Z,50.20
2017-09-21T09:41:24.667Z,46.60
2017-09-21T09:43:55.546Z,46.10
2017-09-21T09:46:26.655Z,44.40
2017-09-21T09:48:58.402Z,40.60
2017-09-21T09:51:29.591Z,40.70
2017-09-21T09:54:00.775Z,40.20
2017-09-21T09:56:33.058Z,39.90
2017-09-21T09:59:05.209Z,43.70
2017-09-21T10:01:37.819Z,44.40
2017-09-21T10:04:10.321Z,40.90
2017-09-21T10:06:42.126Z,40.80
2017-09-21T10:09:14.292Z,39.90
2017-09-21T10:11:45.835Z,40.30
2017-09-21T10:14:17.334Z,42.90
2017-09-21T10:16:48.409Z,45.20
2017-09-21T10:19:19.687Z,42.50
2017-09-21T10:21:51.956Z,37.90
2017-09-21T10:24:24.199Z,36.40
2017-09-21T10:26:55.243Z,36.40
2017-09-21T10:29:26.754Z,35.90
2017-09-21T10:31:58.988Z,35.60
2017-09-21T10:34:30.977Z,35.60
2017-09-21T10:37:02.992Z,35.60
2017-09-21T10:39:34.718Z,35.20
2017-09-21T10:42:06.770Z,35.70
2017-09-21T10:44:37.778Z,38.00
2017-09-21T10:47:08.747Z,36.90
2017-09-21T10:49:39.698Z,37.00
2017-09-21T10:52:10.730Z,36.10
2017-09-21T10:54:41.841Z,34.80
2017-09-21T10:57:12.488Z,35.40
2017-09-21T10:59:43.694Z,35.30
2017-09-21T11:02:16.082Z,35.80
2017-09-21T11:04:48.176Z,35.40
2017-09-21T11:07:19.343Z,35.40
2017-09-21T11:09:50.785Z,35.10
2017-09-21T11:12:22.179Z,35.30
2017-09-21T11:14:54.032Z,36.20
2017-09-21T11:17:26.111Z,35.00
2017-09-21T11:19:57.930Z,34.90
2017-09-21T11:22:29.371Z,34.60
2017-09-21T11:25:01.267Z,33.20
2017-09-21T11:27:32.895Z,32.30
2017-09-21T11:30:05.248Z,33.00
2017-09-21T11:32:37.000Z,33.00
2017-09-21T11:35:08.070Z,32.90
2017-09-21T11:37:40.049Z,33.80
2017-09-21T11:40:12.094Z,34.40
2017-09-21T11:42:43.626Z,34.40
2017-09-21T11:45:15.094Z,34.80
2017-09-21T11:47:47.612Z,34.60
2017-09-21T11:50:18.595Z,34.60
2017-09-21T11:52:50.199Z,35.20
2017-09-21T11:55:21.917Z,33.90
2017-09-21T11:57:53.178Z,33.90
2017-09-21T12:00:25.527Z,33.00
2017-09-21T12:02:56.044Z,33.00
2017-09-21T12:05:27.300Z,34.00
2017-09-21T12:07:58.566Z,33.50
2017-09-21T12:10:30.211Z,33.50
2017-09-21T12:13:01.972Z,33.00
2017-09-21T12:15:32.785Z,33.10
2017-09-21T12:18:04.095Z,35.00
2017-09-21T12:20:35.672Z,35.70
2017-09-21T12:23:07.738Z,35.70
2017-09-21T12:25:38.686Z,35.80
2017-09-21T12:28:11.109Z,35.60
2017-09-21T12:30:42.197Z,35.10
2017-09-21T12:33:13.364Z,35.30
2017-09-21T12:35:45.140Z,36.20
2017-09-21T12:38:16.496Z,36.10
2017-09-21T12:40:47.141Z,36.00
2017-09-21T12:43:18.559Z,37.10
2017-09-21T12:45:51.689Z,39.20
2017-09-21T12:48:24.284Z,39.40
2017-09-21T12:50:55.322Z,39.30
2017-09-21T12:53:27.712Z,40.70
2017-09-21T12:55:59.008Z,40.70
2017-09-21T12:58:30.090Z,42.00
2017-09-21T13:01:02.502Z,43.40
2017-09-21T13:03:33.870Z,43.30
2017-09-21T13:06:05.794Z,42.60
2017-09-21T13:08:38.109Z,41.70
2017-09-21T13:11:10.352Z,41.60
2017-09-21T13:13:41.387Z,41.60
2017-09-21T13:16:13.316Z,41.80
2017-09-21T13:18:45.263Z,41.70
2017-09-21T13:21:16.993Z,41.60
2017-09-21T13:23:49.803Z,42.60
2017-09-21T13:26:22.310Z,41.50
2017-09-21T13:28:53.464Z,41.10
2017-09-21T13:31:25.609Z,40.90
2017-09-21T13:33:57.260Z,42.80
2017-09-21T13:36:28.398Z,44.00
2017-09-21T13:38:59.584Z,44.50
2017-09-21T13:41:30.622Z,44.70
2017-09-21T13:44:01.803Z,43.30
2017-09-21T13:46:33.597Z,43.20
2017-09-21T13:49:04.292Z,43.20
2017-09-21T13:51:35.495Z,43.40
2017-09-21T13:54:07.199Z,43.40
2017-09-21T13:56:38.277Z,44.20
2017-09-21T13:59:09.268Z,44.40
2017-09-21T14:01:40.534Z,44.30
2017-09-21T14:04:13.006Z,44.10
2017-09-21T14:06:44.459Z,44.10
2017-09-21T14:09:15.523Z,43.30
2017-09-21T14:11:46.804Z,43.60
2017-09-21T14:14:18.292Z,42.90
2017-09-21T14:19:21.730Z,41.40
2017-09-21T14:21:53.351Z,42.20
2017-09-21T14:24:25.329Z,41.20
2017-09-21T14:26:56.739Z,41.20
2017-09-21T14:29:27.895Z,42.20
2017-09-21T14:31:59.884Z,42.70
2017-09-21T14:34:30.689Z,43.70
2017-09-21T14:37:02.776Z,42.70
2017-09-21T14:39:34.143Z,42.70
2017-09-21T14:42:04.976Z,43.30
2017-09-21T14:44:36.268Z,44.10
2017-09-21T14:47:07.486Z,43.70
2017-09-21T14:49:38.639Z,43.70
2017-09-21T14:52:10.567Z,44.60
2017-09-21T14:54:42.160Z,44.60
2017-09-21T14:57:12.754Z,44.30
2017-09-21T14:59:43.786Z,43.90
2017-09-21T15:02:15.486Z,43.80
2017-09-21T15:04:47.105Z,43.80
2017-09-21T15:07:17.764Z,45.30
2017-09-21T15:09:48.830Z,45.60
2017-09-21T15:12:20.371Z,46.10
2017-09-21T15:14:51.320Z,47.10
2017-09-21T15:17:22.550Z,47.90
2017-09-21T15:19:53.566Z,47.40
2017-09-21T15:22:24.482Z,47.10
2017-09-21T15:24:56.360Z,47.00
2017-09-21T15:27:27.446Z,46.50
2017-09-21T15:29:58.662Z,47.30
2017-09-21T15:32:30.244Z,47.40
2017-09-21T15:35:02.216Z,47.80
2017-09-21T15:37:34.169Z,48.00
2017-09-21T15:40:05.767Z,48.00
2017-09-21T15:42:36.968Z,48.60
2017-09-21T15:45:07.749Z,48.20
2017-09-21T15:47:38.788Z,47.80
2017-09-21T15:50:10.632Z,48.30
2017-09-21T15:52:41.870Z,48.30
2017-09-21T15:55:14.256Z,49.00
2017-09-21T15:57:45.893Z,49.00
2017-09-21T16:00:17.699Z,49.10
2017-09-21T16:02:48.533Z,49.00
2017-09-21T16:05:20.015Z,49.60
2017-09-21T16:07:51.051Z,49.10
2017-09-21T16:10:22.460Z,49.30
2017-09-21T16:12:52.983Z,49.80
2017-09-21T16:15:23.804Z,49.90
2017-09-21T16:17:55.431Z,50.20
2017-09-21T16:20:26.105Z,50.10
2017-09-21T16:22:57.203Z,49.90
2017-09-21T16:25:28.454Z,50.20
2017-09-21T16:27:59.141Z,50.50
2017-09-21T16:30:30.467Z,50.50
2017-09-21T16:33:01.359Z,50.80
2017-09-21T16:35:32.177Z,50.30
2017-09-21T16:38:03.984Z,51.10
2017-09-21T16:40:35.692Z,50.90
2017-09-21T16:43:06.881Z,50.90
2017-09-21T16:45:38.294Z,51.80
2017-09-21T16:48:08.910Z,51.80
2017-09-21T16:50:40.177Z,51.70
2017-09-21T16:53:10.786Z,51.70
2017-09-21T16:55:42.040Z,52.00
2017-09-21T16:58:13.480Z,52.30
2017-09-21T17:04:17.333Z,54.20
2017-09-21T17:06:48.345Z,54.20
2017-09-21T17:09:19.302Z,54.90
2017-09-21T17:11:48.651Z,55.10
2017-09-21T17:14:19.872Z,55.00
2017-09-21T17:16:51.868Z,55.90
2017-09-21T17:19:23.501Z,55.90
2017-09-21T17:21:53.808Z,55.80
2017-09-21T17:24:25.773Z,57.20
2017-09-21T17:26:57.501Z,58.00
2017-09-21T17:29:29.729Z,58.90
2017-09-21T17:32:00.529Z,58.30
2017-09-21T17:34:31.564Z,59.30
2017-09-21T17:37:03.548Z,61.40
2017-09-21T17:39:34.505Z,61.40
2017-09-21T17:42:06.299Z,61.70
2017-09-21T17:44:38.647Z,63.30
2017-09-21T17:47:09.787Z,63.30
2017-09-21T17:49:40.877Z,63.90
2017-09-21T17:52:12.658Z,65.30
2017-09-21T17:54:43.634Z,65.20
2017-09-21T17:57:14.100Z,65.50
2017-09-21T17:59:45.784Z,66.20
2017-09-21T18:02:16.859Z,66.00
2017-09-21T18:04:48.110Z,66.70
2017-09-21T18:07:18.646Z,67.10
2017-09-21T18:09:49.714Z,67.40
2017-09-21T18:12:20.778Z,68.20
2017-09-21T18:14:51.263Z,68.10
2017-09-21T18:17:22.621Z,68.80
2017-09-21T18:19:53.889Z,68.10
2017-09-21T18:22:24.892Z,68.10
2017-09-21T18:24:56.027Z,69.00
2017-09-21T18:27:26.565Z,69.30
2017-09-21T18:29:56.931Z,69.70
2017-09-21T18:32:27.948Z,69.70
2017-09-21T18:34:58.196Z,69.80
2017-09-21T18:37:29.277Z,70.00
2017-09-21T18:39:59.726Z,69.90
2017-09-21T18:42:30.685Z,69.80
2017-09-21T18:45:01.915Z,69.20
2017-09-21T18:47:33.393Z,70.20
2017-09-21T18:50:04.414Z,70.20
2017-09-21T18:52:35.408Z,69.50
2017-09-21T18:55:06.384Z,70.20
2017-09-21T18:57:37.120Z,70.10
2017-09-21T19:00:07.919Z,70.30
2017-09-21T19:02:38.777Z,70.00
2017-09-21T19:05:10.710Z,70.30
2017-09-21T19:07:41.272Z,70.30
2017-09-21T19:10:12.557Z,70.50
2017-09-21T19:12:43.466Z,70.80
2017-09-21T19:15:14.231Z,70.70
2017-09-21T19:17:45.080Z,71.00
2017-09-21T19:20:16.147Z,71.20
2017-09-21T19:22:47.656Z,70.90
2017-09-21T19:25:19.336Z,72.00
2017-09-21T19:27:50.110Z,71.30
2017-09-21T19:30:20.803Z,71.50
2017-09-21T19:32:51.609Z,71.60
2017-09-21T19:35:22.765Z,71.80
2017-09-21T19:37:55.014Z,72.20
2017-09-21T19:40:26.489Z,73.00
2017-09-21T19:42:57.323Z,72.80
2017-09-21T19:45:28.857Z,73.60
2017-09-21T19:48:00.742Z,73.20
2017-09-21T19:50:31.656Z,73.20
2017-09-21T19:53:02.978Z,73.80
2017-09-21T19:55:33.716Z,73.80
2017-09-21T19:58:04.583Z,74.00
2017-09-21T20:00:35.572Z,74.30
2017-09-21T20:03:07.216Z,75.00
2017-09-21T20:05:38.047Z,75.00
2017-09-21T20:08:08.959Z,75.40
2017-09-21T20:10:39.596Z,75.80
2017-09-21T20:13:10.635Z,76.50
2017-09-21T20:15:42.511Z,76.80
2017-09-21T20:18:13.540Z,76.80
2017-09-21T20:20:43.993Z,77.00
2017-09-21T20:23:14.716Z,77.10
2017-09-21T20:25:46.985Z,77.70
2017-09-21T20:28:18.609Z,77.80
2017-09-21T20:30:49.374Z,77.90
2017-09-21T20:33:21.019Z,78.30
2017-09-21T20:35:51.755Z,78.30
2017-09-21T20:38:22.755Z,78.40
2017-09-21T20:40:54.228Z,78.60
2017-09-21T20:43:25.004Z,78.50
2017-09-21T20:45:55.839Z,78.40
2017-09-21T20:48:26.802Z,78.60
2017-09-21T20:50:59.647Z,78.50
2017-09-21T20:53:30.013Z,78.50
2017-09-21T20:56:01.437Z,79.40
2017-09-21T20:58:33.135Z,78.70
2017-09-21T21:01:04.707Z,78.80
2017-09-21T21:03:35.516Z,78.60
2017-09-21T21:06:06.441Z,78.80
2017-09-21T21:08:37.767Z,79.60
2017-09-21T21:11:08.111Z,78.90
2017-09-21T21:13:38.458Z,79.10
2017-09-21T21:16:09.201Z,79.30
2017-09-21T21:18:39.898Z,79.50
2017-09-21T21:21:11.649Z,79.30
2017-09-21T21:23:42.528Z,79.40
2017-09-21T21:26:14.007Z,79.50
2017-09-21T21:28:44.756Z,79.50
2017-09-21T21:31:15.608Z,79.60
2017-09-21T21:33:47.197Z,79.60
2017-09-21T21:36:18.706Z,80.30
2017-09-21T21:38:49.617Z,80.30
2017-09-21T21:41:20.672Z,81.00
2017-09-21T21:43:51.619Z,81.30
2017-09-21T21:46:22.427Z,81.50
2017-09-21T21:48:53.318Z,81.50
2017-09-21T21:51:24.844Z,81.50
2017-09-21T21:53:55.321Z,81.30
2017-09-21T21:56:26.666Z,81.30
2017-09-21T21:58:58.297Z,81.20
2017-09-21T22:01:29.029Z,81.20
2017-09-21T22:03:59.864Z,81.30
2017-09-21T22:06:30.648Z,80.80
2017-09-21T22:09:01.419Z,81.40
2017-09-21T22:11:31.806Z,81.30
2017-09-21T22:14:02.624Z,81.50
2017-09-21T22:16:33.842Z,81.60
2017-09-21T22:19:05.257Z,82.00
2017-09-21T22:21:36.122Z,81.80
2017-09-21T22:24:07.002Z,82.20
2017-09-21T22:26:38.069Z,82.20
2017-09-21T22:29:08.831Z,82.20
2017-09-21T22:31:39.453Z,82.30
2017-09-21T22:34:09.992Z,82.60
2017-09-21T22:36:40.583Z,82.80
2017-09-21T22:39:11.307Z,83.00
2017-09-21T22:41:41.948Z,83.30
2017-09-21T22:44:12.631Z,83.40
2017-09-21T22:46:43.105Z,83.70
2017-09-21T22:49:14.178Z,83.80
2017-09-21T22:51:45.250Z,84.00
2017-09-21T22:54:16.417Z,84.10
2017-09-21T22:56:47.692Z,84.00
2017-09-21T22:59:18.839Z,84.10
2017-09-21T23:01:49.510Z,84.10
2017-09-21T23:04:20.675Z,84.00
2017-09-21T23:06:52.278Z,84.20
2017-09-21T23:09:23.167Z,84.20
2017-09-21T23:11:54.494Z,84.40
2017-09-21T23:14:25.168Z,84.40
2017-09-21T23:16:56.189Z,84.60
2017-09-21T23:19:27.105Z,85.30
2017-09-21T23:21:58.133Z,84.40
2017-09-21T23:24:28.861Z,84.40
2017-09-21T23:26:59.832Z,84.50
2017-09-21T23:29:31.294Z,84.90
2017-09-21T23:32:01.793Z,84.80
2017-09-21T23:34:32.298Z,85.00
2017-09-21T23:37:03.021Z,85.00
2017-09-21T23:39:33.639Z,84.80
2017-09-21T23:42:04.272Z,84.80
2017-09-21T23:44:35.866Z,84.60
2017-09-21T23:47:06.489Z,84.60
2017-09-21T23:49:37.152Z,85.00
2017-09-21T23:52:08.204Z,84.70
2017-09-21T23:54:38.937Z,85.10
2017-09-21T23:57:09.843Z,85.20
2017-09-21T23:59:41.436Z,85.70
